Time;durP1;ratioP1;P1;durP2;ratioP2;P2;SDS_P1;SDS_P2;PMS_P1;PMS_P2;Temp;Humidity;BMP_temperature;BMP_pressure;BME280_temperature;BME280_humidity;BME280_pressure;Samples;Min_cycle;Max_cycle;Signal;HPM_P1;HPM_P2
2023/05/05 00:01:08;;;;;;;10.55;4.68;;;16.80;64.20;;;;;;3968140;29;20764;-57
2023/05/05 00:03:55;;;;;;;6.32;4.20;;;16.80;64.40;;;;;;3955192;29;20418;-57
2023/05/05 00:06:40;;;;;;;4.93;4.18;;;16.80;64.20;;;;;;3955493;29;20107;-57
2023/05/05 00:09:30;;;;;;;10.27;4.18;;;16.80;64.60;;;;;;3963081;29;20163;-56
2023/05/05 00:12:11;;;;;;;5.97;3.75;;;16.80;64.50;;;;;;3967432;29;20066;-57
2023/05/05 00:14:57;;;;;;;7.53;4.00;;;16.80;64.70;;;;;;3957428;29;20590;-57
2023/05/05 00:17:40;;;;;;;6.85;3.90;;;16.70;64.50;;;;;;3936794;29;20415;-57
2023/05/05 00:20:25;;;;;;;9.63;4.28;;;16.80;64.50;;;;;;3956803;29;20083;-57
2023/05/05 00:23:07;;;;;;;6.07;3.95;;;16.70;64.30;;;;;;3966474;29;20080;-57
2023/05/05 00:25:54;;;;;;;5.03;4.22;;;16.70;64.30;;;;;;3955166;29;20084;-57
2023/05/05 00:28:38;;;;;;;10.93;4.25;;;16.70;64.40;;;;;;3952290;29;20061;-57
2023/05/05 00:31:27;;;;;;;6.45;4.00;;;16.70;64.40;;;;;;3938179;29;20053;-57
2023/05/05 00:34:13;;;;;;;13.27;4.78;;;16.70;64.50;;;;;;3954958;29;20184;-57
2023/05/05 00:36:55;;;;;;;5.95;3.90;;;16.70;64.40;;;;;;3950401;29;20123;-57
2023/05/05 00:39:37;;;;;;;6.95;3.83;;;16.70;64.50;;;;;;3957567;29;20541;-56
2023/05/05 00:42:42;;;;;;;6.32;3.53;;;16.70;64.60;;;;;;3956943;29;20212;-57
2023/05/05 00:45:27;;;;;;;7.53;4.18;;;16.70;64.70;;;;;;3939037;29;20162;-56
2023/05/05 00:48:11;;;;;;;6.05;4.00;;;16.70;64.90;;;;;;3957178;29;20187;-59
2023/05/05 00:50:56;;;;;;;5.22;4.22;;;16.70;64.90;;;;;;3956047;29;20528;-57
2023/05/05 00:53:47;;;;;;;4.82;4.38;;;16.60;65.00;;;;;;3948110;29;20196;-55
2023/05/05 00:56:29;;;;;;;4.60;3.80;;;16.70;65.00;;;;;;3947617;29;20209;-57
2023/05/05 00:59:19;;;;;;;6.28;3.92;;;16.70;65.80;;;;;;3943708;29;20066;-57
2023/05/05 01:02:03;;;;;;;4.75;4.25;;;16.70;64.90;;;;;;3970549;29;20571;-58
2023/05/05 01:04:47;;;;;;;4.32;3.80;;;16.60;64.80;;;;;;3940152;29;20062;-56
2023/05/05 01:07:38;;;;;;;7.28;4.20;;;16.60;64.80;;;;;;3966556;29;20502;-50
2023/05/05 01:10:25;;;;;;;8.25;3.95;;;16.60;64.70;;;;;;3972937;29;20061;-49
2023/05/05 01:13:22;;;;;;;6.93;4.30;;;16.60;64.70;;;;;;3973154;29;20058;-50
2023/05/05 01:16:14;;;;;;;6.55;4.53;;;16.60;65.90;;;;;;3961593;29;20062;-52
2023/05/05 01:19:00;;;;;;;5.25;4.30;;;16.60;64.40;;;;;;3961948;29;20155;-51
2023/05/05 01:21:49;;;;;;;11.32;4.47;;;16.60;64.30;;;;;;3972986;29;20075;-54
2023/05/05 01:24:53;;;;;;;6.22;4.47;;;16.60;64.50;;;;;;3961639;29;20058;-54
2023/05/05 01:27:44;;;;;;;6.97;4.32;;;16.60;64.80;;;;;;3961699;29;20211;-50
2023/05/05 01:31:00;;;;;;;7.10;4.80;;;16.60;64.60;;;;;;3973460;29;20510;-52
2023/05/05 01:33:48;;;;;;;7.32;3.58;;;16.50;64.60;;;;;;3972788;29;20069;-49
2023/05/05 01:36:36;;;;;;;7.07;3.85;;;16.50;64.70;;;;;;3973245;29;20057;-54
2023/05/05 01:39:18;;;;;;;6.10;4.07;;;16.50;64.40;;;;;;3972463;29;20085;-49
2023/05/05 01:42:06;;;;;;;9.63;4.82;;;16.50;64.30;;;;;;3962021;29;20065;-51
2023/05/05 01:44:48;;;;;;;6.45;4.47;;;16.50;64.70;;;;;;3972564;29;20064;-51
2023/05/05 01:47:31;;;;;;;6.38;4.43;;;16.50;65.20;;;;;;3972980;29;20257;-51
2023/05/05 01:50:14;;;;;;;6.75;4.20;;;16.50;65.20;;;;;;3960986;29;20521;-51
2023/05/05 01:52:56;;;;;;;6.28;5.30;;;16.50;65.20;;;;;;3961217;29;20155;-47
2023/05/05 01:55:39;;;;;;;7.15;4.40;;;16.50;65.50;;;;;;3972338;29;20061;-50
2023/05/05 01:58:22;;;;;;;6.10;4.63;;;16.50;65.40;;;;;;3961440;29;20062;-49
2023/05/05 02:01:03;;;;;;;4.80;3.97;;;16.50;65.30;;;;;;3946682;30;20528;-49
2023/05/05 02:03:46;;;;;;;10.05;4.43;;;16.50;65.50;;;;;;3956989;29;20196;-50
2023/05/05 02:06:31;;;;;;;5.25;3.83;;;16.50;65.20;;;;;;3946574;30;20054;-48
2023/05/05 02:09:15;;;;;;;8.25;4.45;;;16.40;64.70;;;;;;3957384;29;20062;-49
2023/05/05 02:11:58;;;;;;;4.88;4.38;;;16.40;64.90;;;;;;3953535;29;20061;-51
2023/05/05 02:14:42;;;;;;;8.10;3.80;;;16.40;66.20;;;;;;3960996;29;20058;-48
2023/05/05 02:17:23;;;;;;;6.47;3.90;;;16.40;65.60;;;;;;3960853;29;20053;-52
2023/05/05 02:20:09;;;;;;;9.10;4.43;;;16.40;65.60;;;;;;3961056;29;20143;-51
2023/05/05 02:22:51;;;;;;;6.10;4.32;;;16.40;65.70;;;;;;3972130;29;20118;-53
2023/05/05 02:25:37;;;;;;;7.65;4.07;;;16.40;65.70;;;;;;3971852;29;20169;-51
2023/05/05 02:28:22;;;;;;;5.70;4.30;;;16.40;66.10;;;;;;3971664;29;20061;-47
2023/05/05 02:31:07;;;;;;;7.15;4.63;;;16.40;66.00;;;;;;3972053;29;20418;-47
2023/05/05 02:33:50;;;;;;;10.10;4.38;;;16.40;65.80;;;;;;3960472;29;20207;-50
2023/05/05 02:36:35;;;;;;;4.45;3.80;;;16.40;65.90;;;;;;3960752;29;20489;-50
2023/05/05 02:39:24;;;;;;;10.07;4.32;;;16.40;65.60;;;;;;3960706;29;20200;-45
2023/05/05 02:42:08;;;;;;;5.82;3.75;;;16.40;65.70;;;;;;3960519;29;20517;-47
2023/05/05 02:44:51;;;;;;;4.72;4.25;;;16.40;65.90;;;;;;3971453;29;20062;-48
2023/05/05 02:47:35;;;;;;;6.90;4.20;;;16.40;66.30;;;;;;3956904;29;20183;-48
2023/05/05 02:50:17;;;;;;;9.13;4.28;;;16.40;66.40;;;;;;3956312;29;20084;-48
2023/05/05 02:53:07;;;;;;;9.45;4.15;;;16.40;67.20;;;;;;3956266;29;20061;-46
2023/05/05 02:55:54;;;;;;;7.13;4.30;;;16.40;66.30;;;;;;3959910;29;20509;-44
2023/05/05 02:58:51;;;;;;;5.30;3.90;;;16.40;66.30;;;;;;3960660;29;20116;-45
2023/05/05 03:01:50;;;;;;;6.90;4.30;;;16.40;66.50;;;;;;3959577;29;20566;-46
2023/05/05 03:04:39;;;;;;;5.72;4.15;;;16.40;66.50;;;;;;3970605;29;20057;-46
2023/05/05 03:07:25;;;;;;;7.57;4.05;;;16.40;66.70;;;;;;3945358;29;20065;-46
2023/05/05 03:10:12;;;;;;;5.82;3.92;;;16.40;66.80;;;;;;3956534;29;20076;-47
2023/05/05 03:13:00;;;;;;;6.03;4.30;;;16.40;66.70;;;;;;3955887;29;20196;-47
2023/05/05 03:15:53;;;;;;;7.95;3.95;;;16.40;66.60;;;;;;3961401;29;20122;-47
2023/05/05 03:18:38;;;;;;;7.30;4.22;;;16.40;66.50;;;;;;3970242;29;20061;-48
2023/05/05 03:21:19;;;;;;;5.53;3.83;;;16.40;67.50;;;;;;3971238;29;20196;-46
2023/05/05 03:24:11;;;;;;;5.45;4.28;;;16.40;66.70;;;;;;3960670;29;20131;-45
2023/05/05 03:26:53;;;;;;;7.82;4.05;;;16.30;66.60;;;;;;3944434;30;20514;-48
2023/05/05 03:29:40;;;;;;;6.78;3.88;;;16.30;66.80;;;;;;3955287;29;20119;-49
2023/05/05 03:32:26;;;;;;;8.38;4.10;;;16.30;66.80;;;;;;3944408;30;20075;-49
2023/05/05 03:35:09;;;;;;;4.32;3.92;;;16.40;66.90;;;;;;3970004;29;20065;-45
2023/05/05 03:37:49;;;;;;;6.22;3.58;;;16.40;67.00;;;;;;3959955;29;20192;-45
2023/05/05 03:40:31;;;;;;;;;;;16.30;66.80;;;;;;3971179;29;20053;-46
2023/05/05 03:43:23;;;;;;;10.07;3.78;;;16.30;66.80;;;;;;3959150;29;20437;-49
2023/05/05 03:46:06;;;;;;;;;;;16.30;67.30;;;;;;3960269;29;20058;-47
2023/05/05 03:48:47;;;;;;;6.60;4.00;;;16.30;67.10;;;;;;3960132;29;19932;-46
2023/05/05 03:51:28;;;;;;;;;;;16.30;67.40;;;;;;3971413;29;20057;-47
2023/05/05 03:54:10;;;;;;;7.32;4.20;;;16.30;67.20;;;;;;3970135;29;19944;-47
2023/05/05 03:56:51;;;;;;;4.28;3.85;;;16.30;67.50;;;;;;3959963;29;20269;-49
2023/05/05 03:59:32;;;;;;;9.48;3.70;;;16.30;67.30;;;;;;3959848;29;20110;-47
2023/05/05 04:02:14;;;;;;;7.75;3.72;;;16.30;67.40;;;;;;3970990;29;20050;-45
2023/05/05 04:04:58;;;;;;;4.70;4.00;;;16.30;67.50;;;;;;3959466;29;20065;-46
2023/05/05 04:07:39;;;;;;;4.13;3.60;;;16.30;67.50;;;;;;3969791;29;20049;-49
2023/05/05 04:10:21;;;;;;;4.68;3.75;;;16.30;67.30;;;;;;3970128;29;20061;-47
2023/05/05 04:13:02;;;;;;;5.53;3.10;;;16.30;67.30;;;;;;3959240;29;20395;-46
2023/05/05 04:15:47;;;;;;;5.88;4.03;;;16.30;67.30;;;;;;3959673;29;20625;-47
2023/05/05 04:18:30;;;;;;;6.80;3.90;;;16.30;68.20;;;;;;3959199;29;20795;-48
2023/05/05 04:21:11;;;;;;;5.95;3.95;;;16.30;67.40;;;;;;3958971;29;20066;-46
2023/05/05 04:23:52;;;;;;;7.55;3.05;;;16.30;67.40;;;;;;3959309;29;20054;-45
2023/05/05 04:26:35;;;;;;;4.38;3.85;;;16.30;67.30;;;;;;3959355;29;20066;-50
2023/05/05 04:29:16;;;;;;;4.10;3.67;;;16.30;67.30;;;;;;3970745;29;20215;-47
2023/05/05 04:31:57;;;;;;;4.72;3.75;;;16.30;68.10;;;;;;3962488;29;20054;-50
2023/05/05 04:34:39;;;;;;;4.35;3.78;;;16.30;67.00;;;;;;3974142;29;20050;-47
2023/05/05 04:37:20;;;;;;;7.40;4.20;;;16.30;66.40;;;;;;3962585;29;20058;-45
2023/05/05 04:40:01;;;;;;;6.82;4.60;;;16.30;66.40;;;;;;3962633;29;20054;-46
2023/05/05 04:42:44;;;;;;;4.30;3.40;;;16.30;66.70;;;;;;3962220;29;20057;-49
2023/05/05 04:45:25;;;;;;;6.03;4.22;;;16.30;66.90;;;;;;3962751;29;20106;-49
2023/05/05 04:48:07;;;;;;;6.65;4.00;;;16.30;67.10;;;;;;3962105;29;20065;-47
2023/05/05 04:50:51;;;;;;;7.25;4.32;;;16.30;67.10;;;;;;3962298;29;20112;-45
2023/05/05 04:53:32;;;;;;;9.75;4.30;;;16.30;67.10;;;;;;3962571;29;20476;-48
2023/05/05 04:56:13;;;;;;;4.30;3.90;;;16.30;67.40;;;;;;3962190;29;20062;-47
2023/05/05 04:58:54;;;;;;;17.70;5.30;;;16.30;67.40;;;;;;3973601;29;20127;-50
2023/05/05 05:01:35;;;;;;;7.32;4.07;;;16.30;66.80;;;;;;3961264;29;20062;-53
2023/05/05 05:04:18;;;;;;;7.43;4.30;;;16.30;66.50;;;;;;3962117;29;20061;-52
2023/05/05 05:07:00;;;;;;;8.23;4.23;;;16.20;66.80;;;;;;3973339;29;20422;-53
2023/05/05 05:09:41;;;;;;;5.90;3.90;;;16.20;67.10;;;;;;3962383;29;20402;-57
2023/05/05 05:12:22;;;;;;;7.30;4.05;;;16.20;66.90;;;;;;3963145;29;20520;-57
2023/05/05 05:15:04;;;;;;;6.75;4.63;;;16.20;67.10;;;;;;3961785;29;20195;-57
2023/05/05 05:17:46;;;;;;;5.50;4.05;;;16.20;67.10;;;;;;3972680;29;20054;-53
2023/05/05 05:20:27;;;;;;;;;;;16.20;67.50;;;;;;3961651;29;20196;-53
2023/05/05 05:23:09;;;;;;;5.45;3.72;;;16.30;68.10;;;;;;3961923;29;20025;-51
2023/05/05 05:25:55;;;;;;;5.25;4.05;;;16.30;68.50;;;;;;3957969;29;20058;-51
2023/05/05 05:28:36;;;;;;;7.70;3.97;;;16.20;68.40;;;;;;3946573;29;20058;-52
2023/05/05 05:31:17;;;;;;;5.30;4.03;;;16.20;68.40;;;;;;3970739;29;20414;-55
2023/05/05 05:33:58;;;;;;;5.20;4.03;;;16.20;68.70;;;;;;3972971;29;20487;-54
2023/05/05 05:36:39;;;;;;;6.38;4.00;;;16.20;68.90;;;;;;3961734;29;20076;-54
2023/05/05 05:39:22;;;;;;;5.05;3.38;;;16.20;69.20;;;;;;3960886;29;20135;-52
2023/05/05 05:42:03;;;;;;;6.95;3.95;;;16.20;69.40;;;;;;3962068;29;20423;-50
2023/05/05 05:44:44;;;;;;;8.38;4.63;;;16.20;69.70;;;;;;3961991;29;20085;-53
2023/05/05 05:47:25;;;;;;;5.57;3.95;;;16.20;69.60;;;;;;3972375;29;20061;-51
2023/05/05 05:50:07;;;;;;;8.20;4.22;;;16.20;69.60;;;;;;3956856;29;20065;-56
2023/05/05 05:52:48;;;;;;;4.50;3.92;;;16.20;69.90;;;;;;3975808;29;20141;-56
2023/05/05 05:55:31;;;;;;;4.60;4.05;;;16.20;70.30;;;;;;3972815;29;20066;-54
2023/05/05 05:58:12;;;;;;;8.07;4.18;;;16.20;70.20;;;;;;3968471;29;20054;-55
2023/05/05 06:00:53;;;;;;;5.80;3.92;;;16.20;70.20;;;;;;3971099;29;20061;-52
2023/05/05 06:03:34;;;;;;;5.93;5.07;;;16.20;70.30;;;;;;3966845;29;20066;-56
2023/05/05 06:06:15;;;;;;;5.63;4.10;;;16.20;70.40;;;;;;3956812;29;20107;-56
2023/05/05 06:08:57;;;;;;;9.02;4.43;;;16.20;70.50;;;;;;3960642;29;20054;-55
2023/05/05 06:11:40;;;;;;;7.40;4.63;;;16.20;70.40;;;;;;3965750;29;20108;-54
2023/05/05 06:14:21;;;;;;;6.95;4.03;;;16.20;70.50;;;;;;3959556;29;20427;-53
2023/05/05 06:17:01;;;;;;;8.45;4.38;;;16.20;71.50;;;;;;3960486;29;20067;-54
2023/05/05 06:19:44;;;;;;;6.05;4.03;;;16.20;70.70;;;;;;3970914;29;20509;-56
2023/05/05 06:22:25;;;;;;;6.03;4.00;;;16.20;70.90;;;;;;3945833;29;20063;-56
2023/05/05 06:25:07;;;;;;;8.38;5.00;;;16.20;71.10;;;;;;3961048;29;20411;-56
2023/05/05 06:27:49;;;;;;;5.28;4.40;;;16.20;71.10;;;;;;3960898;29;20082;-52
2023/05/05 06:30:31;;;;;;;6.35;4.30;;;16.20;71.20;;;;;;3969436;29;20062;-57
2023/05/05 06:33:11;;;;;;;10.50;4.95;;;16.20;71.20;;;;;;3969533;29;20532;-55
2023/05/05 06:35:53;;;;;;;7.97;4.10;;;16.20;71.20;;;;;;3969751;29;20099;-57
2023/05/05 06:38:34;;;;;;;6.75;4.25;;;16.20;71.30;;;;;;3969894;29;20456;-57
2023/05/05 06:41:15;;;;;;;7.05;4.82;;;16.30;71.40;;;;;;3970155;29;20498;-57
2023/05/05 06:43:57;;;;;;;6.38;4.63;;;16.20;71.40;;;;;;3969652;29;20164;-55
2023/05/05 06:46:38;;;;;;;5.47;3.92;;;16.30;71.40;;;;;;3969564;29;20062;-54
2023/05/05 06:49:18;;;;;;;6.80;4.53;;;16.30;72.20;;;;;;3969338;29;21026;-56
2023/05/05 06:51:59;;;;;;;7.22;4.38;;;16.30;71.40;;;;;;3967030;29;20372;-57
2023/05/05 06:54:40;;;;;;;6.13;4.25;;;16.30;71.40;;;;;;3968456;29;20061;-54
2023/05/05 06:57:21;;;;;;;6.53;5.13;;;16.30;71.50;;;;;;3967960;29;20114;-55
2023/05/05 07:00:08;;;;;;;5.45;4.80;;;16.30;71.50;;;;;;3956735;29;20175;-54
2023/05/05 07:02:49;;;;;;;7.00;4.90;;;16.30;71.40;;;;;;3968132;29;20062;-57
2023/05/05 07:05:31;;;;;;;7.90;5.00;;;16.30;71.50;;;;;;3968941;29;20387;-55
2023/05/05 07:08:11;;;;;;;5.53;5.00;;;16.30;71.40;;;;;;3969156;29;20567;-57
2023/05/05 07:10:52;;;;;;;6.05;4.75;;;16.30;71.40;;;;;;3957127;29;20057;-54
2023/05/05 07:13:33;;;;;;;7.47;4.18;;;16.30;71.50;;;;;;3967644;29;20468;-56
2023/05/05 07:16:15;;;;;;;7.45;4.97;;;16.30;71.60;;;;;;3968975;29;20163;-57
2023/05/05 07:18:56;;;;;;;8.18;5.22;;;16.30;71.60;;;;;;3969169;29;20089;-55
2023/05/05 07:21:38;;;;;;;8.13;5.00;;;16.30;72.50;;;;;;3968312;29;20070;-54
2023/05/05 07:24:19;;;;;;;8.20;4.53;;;16.30;71.50;;;;;;3968738;29;20107;-56
2023/05/05 07:27:00;;;;;;;6.55;4.65;;;16.30;71.40;;;;;;3968638;29;20065;-55
2023/05/05 07:29:41;;;;;;;7.30;4.88;;;16.30;71.50;;;;;;3968794;29;20054;-56
2023/05/05 07:32:23;;;;;;;10.05;4.90;;;16.30;71.60;;;;;;3968152;29;20066;-56
2023/05/05 07:35:04;;;;;;;5.90;4.65;;;16.30;71.70;;;;;;3968502;29;20448;-55
2023/05/05 07:37:45;;;;;;;5.43;5.03;;;16.40;72.20;;;;;;3968554;29;20402;-55
2023/05/05 07:40:26;;;;;;;5.35;4.72;;;16.40;72.20;;;;;;3967577;29;20077;-53
2023/05/05 07:43:07;;;;;;;7.10;4.93;;;16.40;73.10;;;;;;3968742;29;20207;-54
2023/05/05 07:45:48;;;;;;;7.68;5.05;;;16.50;72.30;;;;;;3968177;29;20762;-55
2023/05/05 07:48:31;;;;;;;5.45;4.55;;;16.50;72.10;;;;;;3968292;29;20195;-53
2023/05/05 07:51:12;;;;;;;6.82;4.82;;;16.50;72.10;;;;;;3956523;29;20505;-55
2023/05/05 07:53:53;;;;;;;12.32;5.25;;;16.60;72.10;;;;;;3968686;29;20493;-55
2023/05/05 07:56:33;;;;;;;5.97;5.40;;;16.60;72.00;;;;;;3968704;29;20058;-54
2023/05/05 07:59:14;;;;;;;9.63;5.68;;;16.70;72.20;;;;;;3959143;29;20058;-55
2023/05/05 08:01:55;;;;;;;7.30;5.20;;;16.80;72.10;;;;;;3968340;29;20483;-56
2023/05/05 08:04:37;;;;;;;8.65;5.10;;;16.80;72.00;;;;;;3967640;29;20299;-48
2023/05/05 08:07:19;;;;;;;10.77;5.85;;;16.90;71.60;;;;;;3966864;29;20067;-55
2023/05/05 08:09:59;;;;;;;6.45;5.30;;;16.90;72.40;;;;;;3968678;29;20200;-53
2023/05/05 08:12:40;;;;;;;6.70;6.10;;;17.00;71.60;;;;;;3968306;29;20073;-55
2023/05/05 08:15:21;;;;;;;8.73;5.88;;;17.00;71.60;;;;;;3968679;29;20468;-49
2023/05/05 08:18:02;;;;;;;13.15;6.50;;;17.10;71.50;;;;;;3968886;29;20518;-46
2023/05/05 08:20:45;;;;;;;8.43;6.45;;;17.10;71.50;;;;;;3968091;29;20097;-52
2023/05/05 08:23:26;;;;;;;9.10;6.53;;;17.10;71.70;;;;;;3968058;29;20091;-49
2023/05/05 08:26:08;;;;;;;12.30;6.13;;;17.20;71.80;;;;;;3963477;29;20417;-54
2023/05/05 08:28:49;;;;;;;7.45;6.35;;;17.20;71.80;;;;;;3967413;29;20110;-54
2023/05/05 08:31:34;;;;;;;8.35;6.65;;;17.30;71.80;;;;;;3968647;29;20081;-55
2023/05/05 08:34:15;;;;;;;7.00;6.40;;;17.30;72.00;;;;;;3956611;29;20187;-56
2023/05/05 08:36:57;;;;;;;10.80;6.63;;;17.30;71.50;;;;;;3967791;29;20424;-55
2023/05/05 08:39:38;;;;;;;9.23;6.88;;;17.40;71.60;;;;;;3967308;29;20065;-56
2023/05/05 08:42:18;;;;;;;7.73;7.00;;;17.40;71.80;;;;;;3968444;29;20066;-55
2023/05/05 08:45:13;;;;;;;8.60;7.57;;;17.40;71.80;;;;;;3966971;29;20061;-54
2023/05/05 08:47:55;;;;;;;9.68;7.30;;;17.50;71.80;;;;;;3956978;29;20208;-52
2023/05/05 08:50:39;;;;;;;10.35;7.70;;;17.50;71.70;;;;;;3967243;29;20069;-56
2023/05/05 08:53:33;;;;;;;12.23;7.65;;;17.50;71.70;;;;;;3968025;29;20053;-55
2023/05/05 08:56:15;;;;;;;11.38;7.85;;;17.50;71.80;;;;;;3968109;29;20058;-56
2023/05/05 08:58:57;;;;;;;11.80;8.15;;;17.60;71.80;;;;;;3968235;29;20066;-50
2023/05/05 09:01:39;;;;;;;8.38;7.38;;;17.60;71.90;;;;;;3967681;29;20187;-54
2023/05/05 09:04:20;;;;;;;9.90;8.23;;;17.60;71.60;;;;;;3967735;29;20065;-55
2023/05/05 09:07:01;;;;;;;9.38;7.82;;;17.60;71.30;;;;;;3967838;29;20062;-55
2023/05/05 09:09:44;;;;;;;8.95;8.15;;;17.70;71.30;;;;;;3967600;29;20524;-59
2023/05/05 09:12:25;;;;;;;9.50;7.90;;;17.70;71.40;;;;;;3967592;29;20610;-55
2023/05/05 09:15:07;;;;;;;10.55;8.73;;;17.70;72.00;;;;;;3956701;29;20077;-50
2023/05/05 09:17:49;;;;;;;13.18;8.68;;;17.80;72.10;;;;;;3970028;29;20057;-47
2023/05/05 09:20:34;;;;;;;12.38;8.80;;;17.90;72.10;;;;;;3959265;29;20395;-46
2023/05/05 09:23:17;;;;;;;12.95;9.35;;;17.90;72.50;;;;;;3970488;29;20081;-54
2023/05/05 09:26:07;;;;;;;11.18;9.57;;;18.00;73.20;;;;;;3969284;29;20517;-52
2023/05/05 09:28:52;;;;;;;11.23;9.75;;;18.00;73.10;;;;;;3969887;29;20058;-52
2023/05/05 09:31:34;;;;;;;12.98;9.82;;;18.00;72.90;;;;;;3969536;29;20058;-54
2023/05/05 09:34:16;;;;;;;12.45;9.95;;;18.10;72.80;;;;;;3970669;29;20139;-55
2023/05/05 09:36:57;;;;;;;11.40;10.15;;;18.10;72.60;;;;;;3969807;29;20097;-53
2023/05/05 09:39:54;;;;;;;12.57;9.65;;;18.10;72.60;;;;;;3969884;29;20069;-55
2023/05/05 09:42:37;;;;;;;13.60;10.52;;;18.20;73.10;;;;;;3969798;29;20066;-55
2023/05/05 09:45:27;;;;;;;14.07;10.82;;;18.20;73.00;;;;;;3969761;29;20061;-54
2023/05/05 09:48:08;;;;;;;12.50;10.70;;;18.20;72.60;;;;;;3959652;29;20070;-54
2023/05/05 09:50:50;;;;;;;12.27;9.95;;;18.30;72.40;;;;;;3970468;29;20188;-53
2023/05/05 09:53:38;;;;;;;;;;;18.30;72.30;;;;;;3970343;29;20460;-50
2023/05/05 09:56:19;;;;;;;14.45;11.00;;;18.30;72.20;;;;;;3969938;29;20296;-54
2023/05/05 09:59:10;;;;;;;13.70;11.40;;;18.40;72.40;;;;;;3968551;29;20193;-55
2023/05/05 10:01:51;;;;;;;14.25;10.82;;;18.40;72.20;;;;;;3969807;29;20172;-54
2023/05/05 10:04:32;;;;;;;12.95;10.82;;;18.40;72.50;;;;;;3969716;29;21036;-53
2023/05/05 10:07:23;;;;;;;14.13;12.02;;;18.40;72.60;;;;;;3969991;29;20702;-55
2023/05/05 10:10:05;;;;;;;15.80;12.43;;;18.40;72.80;;;;;;3969652;29;20485;-55
2023/05/05 10:12:46;;;;;;;15.20;12.18;;;18.50;73.00;;;;;;3969860;29;20180;-56
2023/05/05 10:15:29;;;;;;;14.20;12.73;;;18.50;73.10;;;;;;3969709;29;20065;-53
2023/05/05 10:18:10;;;;;;;13.32;11.98;;;18.50;72.90;;;;;;3969236;29;20093;-55
2023/05/05 10:20:55;;;;;;;;;;;18.50;73.00;;;;;;3970144;29;20136;-55
2023/05/05 10:23:39;;;;;;;15.50;12.10;;;18.60;72.80;;;;;;3969709;29;19963;-54
2023/05/05 10:26:22;;;;;;;15.98;12.57;;;18.60;72.70;;;;;;3970083;29;20058;-53
2023/05/05 10:29:07;;;;;;;15.52;11.75;;;18.60;72.50;;;;;;3969297;29;20414;-55
2023/05/05 10:31:53;;;;;;;14.38;12.13;;;18.60;72.60;;;;;;3969802;29;20752;-56
2023/05/05 10:34:40;;;;;;;18.02;13.02;;;18.60;72.60;;;;;;3969842;29;20118;-51
2023/05/05 10:37:22;;;;;;;14.82;12.50;;;18.70;72.50;;;;;;3969178;29;20399;-53
2023/05/05 10:40:04;;;;;;;14.13;12.25;;;18.70;72.30;;;;;;3969492;29;20168;-51
2023/05/05 10:42:47;;;;;;;15.30;12.57;;;18.70;72.30;;;;;;3969387;29;20192;-51
2023/05/05 10:45:27;;;;;;;14.23;12.63;;;18.70;72.50;;;;;;3969434;29;20089;-51
2023/05/05 10:48:18;;;;;;;14.70;12.05;;;18.70;72.70;;;;;;3968822;29;20535;-51
2023/05/05 10:51:10;;;;;;;14.90;13.40;;;18.80;72.50;;;;;;3969620;29;20061;-53
2023/05/05 10:53:58;;;;;;;14.57;12.15;;;18.80;72.30;;;;;;3969283;29;20114;-52
2023/05/05 10:56:42;;;;;;;14.52;12.35;;;18.80;72.40;;;;;;3969736;29;20062;-54
2023/05/05 10:59:42;;;;;;;20.67;13.05;;;18.90;72.70;;;;;;3968739;29;20529;-53
2023/05/05 11:02:26;;;;;;;16.13;12.68;;;18.90;73.00;;;;;;3969109;29;20154;-49
2023/05/05 11:05:13;;;;;;;17.58;14.57;;;19.00;72.50;;;;;;3968707;29;20187;-52
2023/05/05 11:08:14;;;;;;;17.10;13.63;;;19.00;72.20;;;;;;3969143;29;20054;-52
2023/05/05 11:10:57;;;;;;;15.77;14.13;;;19.00;72.00;;;;;;3967425;29;20062;-55
2023/05/05 11:13:39;;;;;;;18.10;14.13;;;19.00;71.80;;;;;;3968295;29;20151;-55
2023/05/05 11:16:48;;;;;;;16.83;14.32;;;19.10;71.80;;;;;;3968919;29;20069;-50
2023/05/05 11:19:53;;;;;;;15.52;13.93;;;19.10;72.40;;;;;;3952244;29;20050;-51
2023/05/05 11:23:15;;;;;;;15.90;13.52;;;19.20;72.60;;;;;;3969502;29;20130;-50
2023/05/05 11:25:59;;;;;;;16.63;13.60;;;19.20;72.80;;;;;;3968396;29;20842;-50
2023/05/05 11:28:59;;;;;;;18.02;14.70;;;19.20;72.00;;;;;;3969263;29;20513;-48
2023/05/05 11:31:40;;;;;;;15.23;13.60;;;19.30;72.30;;;;;;3968851;29;20524;-51
2023/05/05 11:34:29;;;;;;;17.33;14.60;;;19.30;71.70;;;;;;3969320;29;20058;-45
2023/05/05 11:37:10;;;;;;;16.13;14.40;;;19.30;71.90;;;;;;3969191;29;20563;-58
2023/05/05 11:40:00;;;;;;;15.15;13.55;;;19.30;71.70;;;;;;3958056;29;20077;-51
2023/05/05 11:42:42;;;;;;;18.92;13.30;;;19.40;71.90;;;;;;3967926;29;20613;-53
2023/05/05 11:45:24;;;;;;;14.70;13.15;;;19.40;72.10;;;;;;3968684;29;20228;-51
2023/05/05 11:48:24;;;;;;;15.77;13.65;;;19.40;71.90;;;;;;3968804;29;20062;-54
2023/05/05 11:51:10;;;;;;;19.73;13.85;;;19.40;72.20;;;;;;3959813;29;20202;-53
2023/05/05 11:53:51;;;;;;;17.50;14.57;;;19.40;71.70;;;;;;3968857;29;20609;-54
2023/05/05 11:56:32;;;;;;;19.55;14.68;;;19.40;71.60;;;;;;3957588;29;20073;-53
2023/05/05 11:59:15;;;;;;;16.35;14.68;;;19.40;71.60;;;;;;3968577;29;20167;-53
2023/05/05 12:01:55;;;;;;;16.48;14.27;;;19.40;71.60;;;;;;3969156;29;20065;-54
2023/05/05 12:04:39;;;;;;;16.80;14.95;;;19.50;71.70;;;;;;3968457;29;20065;-53
2023/05/05 12:07:22;;;;;;;19.55;15.35;;;19.50;71.70;;;;;;3968631;29;20403;-50
2023/05/05 12:10:03;;;;;;;17.58;14.55;;;19.50;71.80;;;;;;3968309;29;20062;-55
2023/05/05 12:12:43;;;;;;;15.00;13.38;;;19.50;71.70;;;;;;3968829;29;20053;-54
2023/05/05 12:15:30;;;;;;;18.08;14.02;;;19.50;71.60;;;;;;3969148;29;20061;-55
2023/05/05 12:18:18;;;;;;;16.88;14.82;;;19.50;71.80;;;;;;3968135;29;20066;-54
2023/05/05 12:20:59;;;;;;;19.77;15.25;;;19.50;71.80;;;;;;3968604;29;20407;-53
2023/05/05 12:23:40;;;;;;;18.52;14.88;;;19.50;71.80;;;;;;3968547;29;20103;-55
2023/05/05 12:26:25;;;;;;;18.30;14.75;;;19.50;71.80;;;;;;3968095;29;20066;-55
2023/05/05 12:29:07;;;;;;;18.27;14.70;;;19.50;71.80;;;;;;3968689;29;20208;-55
2023/05/05 12:31:49;;;;;;;16.65;14.93;;;19.50;71.70;;;;;;3968871;29;20131;-51
2023/05/05 12:34:31;;;;;;;16.77;14.05;;;19.60;71.60;;;;;;3968187;29;20061;-55
2023/05/05 12:37:14;;;;;;;16.88;14.65;;;19.60;71.60;;;;;;3968388;29;20183;-52
2023/05/05 12:39:55;;;;;;;16.65;14.77;;;19.60;71.80;;;;;;3956948;29;20139;-54
2023/05/05 12:42:39;;;;;;;15.98;13.63;;;19.60;71.50;;;;;;3968683;29;20053;-53
2023/05/05 12:45:20;;;;;;;16.13;13.57;;;19.60;71.60;;;;;;3968415;29;20102;-52
2023/05/05 12:48:21;;;;;;;16.50;14.40;;;19.60;71.60;;;;;;3969984;29;20062;-54
2023/05/05 12:51:22;;;;;;;16.75;13.98;;;19.70;71.60;;;;;;3971516;29;20058;-51
2023/05/05 12:54:04;;;;;;;18.48;15.20;;;19.70;71.30;;;;;;3972795;29;20079;-55
2023/05/05 12:56:47;;;;;;;16.33;14.43;;;19.70;71.30;;;;;;3972902;29;20061;-53
2023/05/05 12:59:30;;;;;;;18.30;15.00;;;19.70;71.50;;;;;;3961753;29;20054;-53
2023/05/05 13:02:11;;;;;;;17.70;14.55;;;19.70;71.30;;;;;;3973076;29;20526;-56
2023/05/05 13:04:54;;;;;;;22.45;16.33;;;19.70;71.20;;;;;;3973073;29;20066;-54
2023/05/05 13:07:36;;;;;;;16.73;14.93;;;19.70;71.40;;;;;;3972751;29;20080;-55
2023/05/05 13:10:18;;;;;;;20.00;15.13;;;19.70;71.60;;;;;;3973317;29;20057;-51
2023/05/05 13:12:59;;;;;;;19.95;14.43;;;19.70;71.80;;;;;;3957756;29;20449;-51
2023/05/05 13:15:40;;;;;;;17.52;15.13;;;19.70;71.70;;;;;;3964368;29;20103;-52
2023/05/05 13:18:21;;;;;;;21.65;16.75;;;19.60;71.80;;;;;;3961832;29;20188;-54
2023/05/05 13:21:03;;;;;;;20.60;16.10;;;19.60;71.90;;;;;;3957885;29;20066;-54
2023/05/05 13:23:44;;;;;;;22.42;17.10;;;19.60;72.20;;;;;;3958467;29;20062;-49
2023/05/05 13:26:26;;;;;;;19.20;16.67;;;19.50;72.20;;;;;;3958229;29;20201;-49
2023/05/05 13:29:06;;;;;;;;;;;19.50;72.60;;;;;;3967819;29;20143;-52
2023/05/05 13:31:48;;;;;;;21.55;16.77;;;19.50;72.40;;;;;;3972704;29;20009;-50
2023/05/05 13:34:30;;;;;;;19.17;16.88;;;19.40;72.50;;;;;;3972475;29;20074;-55
2023/05/05 13:37:12;;;;;;;18.10;16.30;;;19.40;73.20;;;;;;3972757;29;20426;-44
2023/05/05 13:39:57;;;;;;;22.65;16.90;;;19.40;73.60;;;;;;3961545;29;20135;-48
2023/05/05 13:42:39;;;;;;;21.52;16.05;;;19.40;73.80;;;;;;3972456;29;20058;-44
2023/05/05 13:45:20;;;;;;;20.20;16.35;;;19.40;75.40;;;;;;3973040;29;20134;-44
2023/05/05 13:48:01;;;;;;;20.40;18.20;;;19.30;75.50;;;;;;3961681;29;20691;-45
2023/05/05 13:50:41;;;;;;;17.15;14.75;;;19.30;75.60;;;;;;3972708;29;20531;-44
2023/05/05 13:53:24;;;;;;;17.02;13.45;;;19.20;75.80;;;;;;3972760;29;20159;-46
2023/05/05 13:56:05;;;;;;;21.45;15.27;;;19.20;76.00;;;;;;3972675;29;20049;-44
2023/05/05 13:58:46;;;;;;;16.95;13.30;;;19.10;76.40;;;;;;3972777;29;20399;-48
2023/05/05 14:01:27;;;;;;;15.13;11.73;;;19.10;76.50;;;;;;3972423;29;20062;-45
2023/05/05 14:04:09;;;;;;;22.30;13.63;;;19.10;76.90;;;;;;3972631;29;20157;-51
2023/05/05 14:06:50;;;;;;;19.27;12.38;;;19.00;77.10;;;;;;3971779;29;20093;-50